Time;durP1;ratioP1;P1;durP2;ratioP2;P2;SDS_P1;SDS_P2;PMS_P1;PMS_P2;Temp;Humidity;BMP_temperature;BMP_pressure;BME280_temperature;BME280_humidity;BME280_pressure;Samples;Min_cycle;Max_cycle;Signal;HPM_P1;HPM_P2
2023/02/06 00:00:43;;;;;;;6.82;1.05;;;;;;;-2.89;100.00;102697.59;7401565;19;20011;-58
2023/02/06 00:03:09;;;;;;;1.83;1.73;;;;;;;-3.07;100.00;102699.44;7397579;19;20477;-58
2023/02/06 00:05:35;;;;;;;2.55;1.92;;;;;;;-3.20;100.00;102697.63;7398169;19;20027;-63
2023/02/06 00:08:03;;;;;;;3.58;1.92;;;;;;;-3.04;100.00;102689.03;7397857;19;20015;-63
2023/02/06 00:10:29;;;;;;;7.25;2.70;;;;;;;-3.04;100.00;102678.13;7399216;19;20490;-59
2023/02/06 00:12:55;;;;;;;2.88;2.13;;;;;;;-3.02;100.00;102673.97;7396816;19;20014;-59
2023/02/06 00:15:21;;;;;;;12.60;1.77;;;;;;;-3.08;100.00;102683.44;7396325;19;20035;-64
2023/02/06 00:17:47;;;;;;;2.10;1.90;;;;;;;-3.17;100.00;102675.22;7393450;19;20010;-64
2023/02/06 00:20:14;;;;;;;0.77;0.77;;;;;;;-3.08;100.00;102672.53;7397556;19;20011;-64
2023/02/06 00:22:40;;;;;;;8.63;1.08;;;;;;;-3.16;100.00;102665.09;7395529;19;20025;-63
2023/02/06 00:25:06;;;;;;;2.05;1.95;;;;;;;-3.19;100.00;102661.09;7392796;19;20031;-63
2023/02/06 00:27:33;;;;;;;1.77;0.57;;;;;;;-3.16;100.00;102657.72;7393884;19;20019;-63
2023/02/06 00:29:59;;;;;;;3.58;1.58;;;;;;;-3.16;100.00;102649.56;7395643;19;20236;-63
2023/02/06 00:32:25;;;;;;;1.80;1.70;;;;;;;-3.16;100.00;102640.56;7392894;19;20025;-64
2023/02/06 00:34:51;;;;;;;4.25;1.15;;;;;;;-3.29;100.00;102645.00;7392935;19;20015;-63
2023/02/06 00:37:17;;;;;;;3.40;1.50;;;;;;;-3.26;100.00;102638.94;7392144;19;20074;-63
2023/02/06 00:39:43;;;;;;;2.58;2.03;;;;;;;-3.22;100.00;102631.75;7392731;19;20108;-63
2023/02/06 00:42:09;;;;;;;4.18;3.00;;;;;;;-3.19;100.00;102633.84;7391856;19;20043;-63
2023/02/06 00:44:36;;;;;;;3.90;2.13;;;;;;;-3.32;100.00;102637.47;7393175;19;20019;-64
2023/02/06 00:47:02;;;;;;;11.63;1.70;;;;;;;-3.24;100.00;102635.91;7391337;19;20329;-63
2023/02/06 00:49:28;;;;;;;1.13;0.93;;;;;;;-3.21;100.00;102651.63;7392500;19;20015;-63
2023/02/06 00:51:54;;;;;;;1.65;1.55;;;;;;;-3.31;100.00;102636.34;7389536;19;20074;-63
2023/02/06 00:54:20;;;;;;;3.10;2.88;;;;;;;-3.32;100.00;102629.31;7396727;19;20014;-63
2023/02/06 00:56:47;;;;;;;4.60;2.25;;;;;;;-3.21;100.00;102630.63;7392480;19;20018;-63
2023/02/06 00:59:13;;;;;;;5.07;1.75;;;;;;;-3.29;100.00;102617.75;7390229;19;20017;-63
2023/02/06 01:01:40;;;;;;;1.35;0.98;;;;;;;-3.17;100.00;102622.63;7391235;19;20007;-63
2023/02/06 01:04:06;;;;;;;4.25;2.65;;;;;;;-3.02;100.00;102622.19;7391689;19;20074;-63
2023/02/06 01:06:32;;;;;;;4.97;1.98;;;;;;;-3.13;100.00;102618.97;7392026;19;20019;-63
2023/02/06 01:08:58;;;;;;;2.15;1.38;;;;;;;-2.86;100.00;102615.19;7391568;19;20081;-63
2023/02/06 01:11:27;;;;;;;4.05;3.53;;;;;;;-3.01;100.00;102610.16;7390859;19;20505;-63
2023/02/06 01:13:53;;;;;;;9.70;4.05;;;;;;;-3.26;100.00;102611.69;7391664;19;20019;-63
2023/02/06 01:16:22;;;;;;;17.02;1.85;;;;;;;-3.19;100.00;102612.06;7391950;19;20078;-62
2023/02/06 01:18:49;;;;;;;4.32;2.20;;;;;;;-3.23;100.00;102611.03;7389090;19;20380;-63
2023/02/06 01:21:21;;;;;;;0.85;0.85;;;;;;;-3.31;100.00;102598.22;7389689;19;20010;-63
2023/02/06 01:23:49;;;;;;;4.43;2.40;;;;;;;-3.34;100.00;102604.31;7395552;19;20018;-63
2023/02/06 01:26:23;;;;;;;21.65;1.92;;;;;;;-3.41;100.00;102614.03;7391757;19;20034;-63
2023/02/06 01:28:49;;;;;;;8.88;2.38;;;;;;;-3.52;100.00;102612.69;7392682;19;20035;-62
2023/02/06 01:31:19;;;;;;;5.00;2.63;;;;;;;-3.33;100.00;102618.69;7392780;19;20361;-62
2023/02/06 01:33:47;;;;;;;7.97;2.63;;;;;;;-3.32;100.00;102610.25;7388040;19;20378;-63
2023/02/06 01:36:15;;;;;;;1.70;1.67;;;;;;;-3.24;100.00;102625.00;7391041;19;20462;-63
2023/02/06 01:38:42;;;;;;;3.67;1.67;;;;;;;-3.33;100.00;102621.44;7388247;19;20014;-62
2023/02/06 01:41:10;;;;;;;1.13;1.08;;;;;;;-3.08;100.00;102618.81;7394108;19;20011;-62
2023/02/06 01:43:39;;;;;;;2.65;1.35;;;;;;;-3.36;100.00;102609.25;7389655;19;20007;-62
2023/02/06 01:46:06;;;;;;;3.90;2.17;;;;;;;-3.30;100.00;102610.72;7390220;19;20010;-63
2023/02/06 01:48:36;;;;;;;1.85;1.75;;;;;;;-3.40;100.00;102596.59;7390913;19;20018;-62
2023/02/06 01:51:05;;;;;;;1.38;1.27;;;;;;;-3.43;100.00;102594.47;7393694;19;20014;-62
2023/02/06 01:53:32;;;;;;;1.70;0.93;;;;;;;-3.32;100.00;102595.81;7394220;19;20006;-62
2023/02/06 01:56:01;;;;;;;1.60;1.20;;;;;;;-3.18;100.00;102591.84;7391369;19;20019;-62
2023/02/06 01:58:34;;;;;;;0.75;0.75;;;;;;;-3.20;100.00;102596.00;7387891;19;20679;-62
2023/02/06 02:01:02;;;;;;;1.08;1.02;;;;;;;-3.25;100.00;102580.59;7392287;19;20021;-63
2023/02/06 02:03:30;;;;;;;3.65;2.55;;;;;;;-3.06;100.00;102583.06;7390055;19;20015;-62
2023/02/06 02:06:04;;;;;;;0.40;0.40;;;;;;;-3.13;100.00;102572.63;7389838;19;20010;-62
2023/02/06 02:08:35;;;;;;;2.95;2.30;;;;;;;-2.98;100.00;102567.84;7390720;19;20022;-62
2023/02/06 02:11:05;;;;;;;1.77;1.47;;;;;;;-3.25;100.00;102577.88;7392357;19;20022;-62
2023/02/06 02:13:31;;;;;;;2.47;1.40;;;;;;;-3.16;100.00;102573.25;7395215;19;20232;-62
2023/02/06 02:16:18;;;;;;;2.47;1.08;;;;;;;-3.14;100.00;102571.00;7391065;19;20019;-62
2023/02/06 02:19:09;;;;;;;5.13;2.88;;;;;;;-3.02;100.00;102555.97;7387578;19;20151;-61
2023/02/06 02:21:54;;;;;;;1.02;1.02;;;;;;;-2.88;100.00;102564.84;7389407;19;20574;-62
2023/02/06 02:24:35;;;;;;;1.13;1.10;;;;;;;-2.91;100.00;102563.53;7392825;19;20023;-62
2023/02/06 02:27:25;;;;;;;2.08;1.88;;;;;;;-3.25;100.00;102564.25;7390081;19;20351;-62
2023/02/06 02:30:01;;;;;;;2.95;1.20;;;;;;;-3.21;100.00;102578.06;7388908;19;20026;-62
2023/02/06 02:32:58;;;;;;;3.60;1.83;;;;;;;-3.37;100.00;102569.50;7390463;19;20457;-61
2023/02/06 02:35:50;;;;;;;2.50;2.30;;;;;;;-2.57;100.00;102577.19;7389015;19;20010;-62
2023/02/06 02:38:35;;;;;;;1.92;1.77;;;;;;;-3.19;100.00;102579.34;7386957;19;20450;-62
2023/02/06 02:41:33;;;;;;;3.45;2.28;;;;;;;-3.27;100.00;102582.06;7394046;19;20021;-61
2023/02/06 02:44:17;;;;;;;2.80;1.17;;;;;;;-3.41;100.00;102575.91;7387141;19;20006;-61
2023/02/06 02:46:47;;;;;;;0.93;0.93;;;;;;;-3.23;100.00;102572.91;7387288;19;20026;-62
2023/02/06 02:49:24;;;;;;;5.17;1.90;;;;;;;-3.11;100.00;102572.31;7391205;19;20015;-62
2023/02/06 02:51:52;;;;;;;0.82;0.82;;;;;;;-2.75;100.00;102572.06;7385392;19;20010;-62
2023/02/06 02:54:18;;;;;;;2.22;1.10;;;;;;;-3.10;100.00;102577.44;7394209;19;20043;-61
2023/02/06 02:56:46;;;;;;;3.70;1.92;;;;;;;-3.12;100.00;102563.31;7386835;19;20070;-61
2023/02/06 02:59:22;;;;;;;0.95;0.88;;;;;;;-3.22;100.00;102574.53;7388637;19;20085;-62
2023/02/06 03:01:57;;;;;;;2.30;1.65;;;;;;;-3.27;100.00;102577.38;7388796;19;20015;-62
2023/02/06 03:05:10;;;;;;;2.60;0.75;;;;;;;-3.28;100.00;102573.06;7389389;19;20010;-62
2023/02/06 03:07:45;;;;;;;0.95;0.95;;;;;;;-3.26;100.00;102562.66;7387523;19;20547;-62
2023/02/06 03:10:32;;;;;;;1.77;0.93;;;;;;;-3.28;100.00;102562.16;7390822;19;20014;-61
2023/02/06 03:13:17;;;;;;;0.75;0.75;;;;;;;-3.25;100.00;102566.19;7397064;19;20344;-62
2023/02/06 03:15:54;;;;;;;1.25;1.00;;;;;;;-2.93;100.00;102567.69;7399399;19;20010;-62
2023/02/06 03:18:31;;;;;;;0.63;0.63;;;;;;;-3.23;100.00;102556.56;7399367;19;20014;-61
2023/02/06 03:21:00;;;;;;;4.35;0.70;;;;;;;-3.19;100.00;102565.72;7402446;19;20014;-61
2023/02/06 03:23:31;;;;;;;5.68;2.67;;;;;;;-2.90;100.00;102565.13;7401312;19;20347;-62
2023/02/06 03:26:01;;;;;;;4.15;2.30;;;;;;;-3.10;100.00;102555.63;7398269;19;20459;-62
2023/02/06 03:28:32;;;;;;;2.60;1.80;;;;;;;-3.04;100.00;102560.94;7396133;19;20490;-63
2023/02/06 03:31:03;;;;;;;1.42;1.33;;;;;;;-3.36;100.00;102568.41;7398973;19;20019;-61
2023/02/06 03:33:35;;;;;;;3.22;1.85;;;;;;;-3.14;100.00;102559.34;7397531;19;20031;-61
2023/02/06 03:36:04;;;;;;;0.52;0.52;;;;;;;-3.14;100.00;102564.78;7397460;19;20006;-62
2023/02/06 03:38:30;;;;;;;4.68;1.15;;;;;;;-3.05;100.00;102562.06;7396310;19;20362;-62
2023/02/06 03:41:00;;;;;;;4.35;1.40;;;;;;;-3.04;100.00;102558.22;7401837;19;20023;-62
2023/02/06 03:43:28;;;;;;;2.10;1.98;;;;;;;-3.09;100.00;102557.25;7396026;19;20021;-58
2023/02/06 03:46:03;;;;;;;1.70;1.23;;;;;;;-3.02;100.00;102555.97;7395532;19;20010;-61
2023/02/06 03:48:36;;;;;;;1.48;1.48;;;;;;;-2.89;100.00;102552.31;7395726;19;20325;-62
2023/02/06 03:51:08;;;;;;;3.22;0.95;;;;;;;-2.84;100.00;102554.88;7399212;19;20082;-63
2023/02/06 03:53:37;;;;;;;5.03;1.40;;;;;;;-2.87;100.00;102552.78;7398788;19;20035;-58
2023/02/06 03:56:11;;;;;;;1.25;1.02;;;;;;;-2.65;100.00;102539.03;7394943;19;20481;-58
2023/02/06 03:58:38;;;;;;;5.50;1.05;;;;;;;-2.53;100.00;102530.97;7394041;19;20014;-58
2023/02/06 04:01:05;;;;;;;0.40;0.40;;;;;;;-2.96;100.00;102549.25;7395764;19;20035;-58
2023/02/06 04:03:32;;;;;;;9.50;2.05;;;;;;;8.17;100.00;102521.63;7392451;19;20014;-58
2023/02/06 04:05:59;;;;;;;0.47;0.47;;;;;;;19.89;55.97;102487.69;7389417;19;20771;-58
2023/02/06 04:08:25;;;;;;;1.25;0.75;;;;;;;22.47;42.11;102492.56;7392336;19;20463;-58
2023/02/06 04:10:51;;;;;;;3.17;2.42;;;;;;;23.38;38.93;102478.97;7395884;19;20007;-58
2023/02/06 04:13:18;;;;;;;6.15;1.65;;;;;;;23.39;36.83;102475.63;7392614;19;20094;-58
2023/02/06 04:15:44;;;;;;;2.35;2.15;;;;;;;23.27;36.41;102479.59;7392617;19;20011;-58
2023/02/06 04:18:10;;;;;;;1.50;1.40;;;;;;;23.79;35.18;102478.34;7393262;19;20011;-58
2023/02/06 04:20:39;;;;;;;0.80;0.80;;;;;;;23.81;35.10;102477.81;7396306;19;20391;-58
2023/02/06 04:23:07;;;;;;;3.10;2.10;;;;;;;24.15;34.73;102485.34;7392191;19;20015;-58
2023/02/06 04:25:33;;;;;;;0.50;0.50;;;;;;;23.76;34.35;102482.19;7393091;19;20363;-58
2023/02/06 04:28:00;;;;;;;1.63;1.17;;;;;;;23.68;34.15;102481.06;7392022;19;20066;-59
2023/02/06 04:30:26;;;;;;;0.63;0.55;;;;;;;24.25;33.40;102474.56;7395048;19;20068;-58
2023/02/06 04:32:52;;;;;;;0.85;0.85;;;;;;;24.53;32.81;102481.19;7392901;19;20014;-58
2023/02/06 04:35:18;;;;;;;0.82;0.82;;;;;;;24.34;32.52;102480.06;7393211;19;20014;-58
2023/02/06 04:37:45;;;;;;;2.75;0.98;;;;;;;23.73;32.15;102477.50;7391265;19;20010;-58
2023/02/06 04:40:11;;;;;;;2.92;2.20;;;;;;;24.04;31.81;102474.66;7393753;19;20015;-58
2023/02/06 04:42:37;;;;;;;0.20;0.20;;;;;;;23.18;32.16;102457.03;7392212;19;20079;-58
2023/02/06 04:45:04;;;;;;;3.95;1.88;;;;;;;22.30;32.89;102456.69;7393261;19;20010;-58
2023/02/06 04:47:30;;;;;;;0.95;0.95;;;;;;;4.15;89.64;102490.06;7390547;19;20014;-58
2023/02/06 04:49:56;;;;;;;0.82;0.82;;;;;;;8.10;100.00;102493.88;7393640;19;20006;-58
2023/02/06 04:52:22;;;;;;;1.05;0.93;;;;;;;20.22;43.18;102470.78;7392780;19;20010;-59
2023/02/06 04:54:48;;;;;;;1.35;1.23;;;;;;;21.83;37.22;102460.59;7391675;19;20014;-59
2023/02/06 04:57:15;;;;;;;2.83;1.83;;;;;;;21.77;35.86;102469.00;7391007;19;20014;-58
2023/02/06 04:59:41;;;;;;;0.88;0.47;;;;;;;21.04;36.09;102466.13;7392083;19;20010;-58
2023/02/06 05:02:07;;;;;;;2.67;1.40;;;;;;;20.68;36.07;102472.03;7390579;19;20531;-58
2023/02/06 05:04:33;;;;;;;3.80;1.23;;;;;;;8.10;49.87;102493.88;7391328;19;20014;-58
2023/02/06 05:06:59;;;;;;;1.27;1.08;;;;;;;0.06;100.00;102514.38;7391004;19;20010;-58
2023/02/06 05:09:25;;;;;;;1.50;1.40;;;;;;;-0.92;100.00;102514.31;7391670;19;20014;-58
2023/02/06 05:11:52;;;;;;;0.30;0.30;;;;;;;-1.77;100.00;102512.84;7389497;19;20156;-58
2023/02/06 05:14:18;;;;;;;3.55;1.42;;;;;;;-2.44;100.00;102512.69;7391616;19;20013;-58
2023/02/06 05:16:44;;;;;;;1.85;1.00;;;;;;;-2.94;100.00;102514.28;7391630;19;20351;-58
2023/02/06 05:19:10;;;;;;;2.78;2.58;;;;;;;-3.48;100.00;102505.53;7392688;19;20014;-58
2023/02/06 05:21:36;;;;;;;0.63;0.63;;;;;;;-3.46;100.00;102507.94;7390943;19;20018;-58
2023/02/06 05:24:02;;;;;;;1.60;0.73;;;;;;;-3.63;100.00;102497.81;7392216;19;20015;-58
2023/02/06 05:26:29;;;;;;;0.80;0.80;;;;;;;-3.71;100.00;102506.75;7391812;19;20536;-58
2023/02/06 05:28:55;;;;;;;0.82;0.73;;;;;;;-3.53;100.00;102502.16;7392688;19;20013;-58
2023/02/06 05:31:21;;;;;;;1.83;0.73;;;;;;;-3.99;100.00;102499.91;7396669;19;20366;-59
2023/02/06 05:33:50;;;;;;;2.70;0.98;;;;;;;-4.03;100.00;102504.38;7389525;19;20705;-58
2023/02/06 05:36:17;;;;;;;2.03;1.88;;;;;;;-4.27;100.00;102495.75;7393156;19;20010;-58
2023/02/06 05:38:43;;;;;;;1.08;0.77;;;;;;;-4.34;100.00;102503.53;7390575;19;20031;-58
2023/02/06 05:41:09;;;;;;;1.45;1.35;;;;;;;-4.34;100.00;102503.53;7397595;19;20658;-58
2023/02/06 05:43:36;;;;;;;0.93;0.93;;;;;;;-4.47;100.00;102499.78;7393000;19;20039;-58
2023/02/06 05:46:03;;;;;;;0.55;0.55;;;;;;;-4.42;100.00;102498.84;7392397;19;20030;-58
2023/02/06 05:48:29;;;;;;;8.55;1.25;;;;;;;-4.52;100.00;102504.50;7391029;19;20114;-58
2023/02/06 05:50:57;;;;;;;2.22;1.48;;;;;;;-4.56;100.00;102500.81;7393996;19;20486;-59
2023/02/06 05:53:23;;;;;;;2.88;0.82;;;;;;;-4.65;100.00;102504.28;7392409;19;20029;-58
2023/02/06 05:55:49;;;;;;;0.52;0.52;;;;;;;-4.69;100.00;102519.59;7390642;19;20014;-59
2023/02/06 05:58:17;;;;;;;2.55;2.45;;;;;;;-4.73;100.00;102512.38;7389949;19;20097;-59
2023/02/06 06:00:43;;;;;;;1.33;1.05;;;;;;;-4.74;100.00;102505.31;7391751;19;20859;-58
2023/02/06 06:03:10;;;;;;;7.50;2.40;;;;;;;-4.57;100.00;102515.53;7388948;19;20014;-58
2023/02/06 06:05:36;;;;;;;0.52;0.52;;;;;;;-4.53;100.00;102516.53;7389362;19;20015;-58
2023/02/06 06:08:02;;;;;;;11.82;3.20;;;;;;;-4.67;100.00;102505.69;7389413;19;20010;-58
2023/02/06 06:10:28;;;;;;;1.25;0.80;;;;;;;-2.36;100.00;102492.78;7392683;19;20018;-58
2023/02/06 06:12:55;;;;;;;1.80;1.70;;;;;;;-3.94;100.00;102494.31;7387612;19;20014;-58
2023/02/06 06:15:22;;;;;;;1.10;1.10;;;;;;;-4.69;100.00;102486.19;7387791;19;20048;-59
2023/02/06 06:17:48;;;;;;;1.98;1.27;;;;;;;-4.66;100.00;102491.78;7389935;19;20118;-58
2023/02/06 06:20:14;;;;;;;2.65;1.83;;;;;;;-4.16;100.00;102487.00;7390959;19;20014;-58
2023/02/06 06:22:40;;;;;;;0.25;0.25;;;;;;;-4.51;100.00;102487.09;7389686;19;20014;-58
2023/02/06 06:25:07;;;;;;;11.75;1.95;;;;;;;-4.33;100.00;102483.41;7388462;19;20010;-58
2023/02/06 06:27:33;;;;;;;0.32;0.32;;;;;;;-4.42;100.00;102480.63;7387814;19;20574;-58
2023/02/06 06:29:59;;;;;;;1.65;1.60;;;;;;;-4.48;100.00;102475.63;7391207;19;20030;-59
2023/02/06 06:32:26;;;;;;;2.00;1.90;;;;;;;-4.61;100.00;102478.09;7385404;19;20014;-58
2023/02/06 06:34:52;;;;;;;0.63;0.63;;;;;;;-4.72;100.00;102476.72;7388644;19;20021;-59
2023/02/06 06:37:18;;;;;;;1.27;1.27;;;;;;;-4.80;100.00;102472.03;7388167;19;20459;-58
2023/02/06 06:39:44;;;;;;;2.08;1.63;;;;;;;-4.59;100.00;102469.59;7388314;19;20459;-58
2023/02/06 06:42:10;;;;;;;0.90;0.90;;;;;;;-4.77;100.00;102479.56;7388920;19;20021;-59
2023/02/06 06:44:36;;;;;;;1.02;0.95;;;;;;;-4.81;100.00;102494.09;7388586;19;20068;-58
2023/02/06 06:47:02;;;;;;;3.80;1.23;;;;;;;-4.25;100.00;102494.31;7393101;19;20015;-59
2023/02/06 06:49:28;;;;;;;1.80;1.73;;;;;;;-4.76;100.00;102492.03;7396284;19;20035;-59
2023/02/06 06:51:55;;;;;;;0.65;0.65;;;;;;;-4.86;100.00;102496.91;7393251;19;20015;-59
2023/02/06 06:54:21;;;;;;;0.93;0.93;;;;;;;-4.99;100.00;102493.13;7399078;19;20010;-59
2023/02/06 06:56:47;;;;;;;3.55;1.30;;;;;;;-4.91;100.00;102484.25;7393994;19;20345;-59
2023/02/06 06:59:14;;;;;;;4.13;2.92;;;;;;;-4.98;100.00;102473.00;7396728;19;20082;-58
2023/02/06 07:01:40;;;;;;;2.97;2.78;;;;;;;-4.74;100.00;102478.13;7394932;19;20010;-58
2023/02/06 07:04:06;;;;;;;13.55;4.40;;;;;;;-4.87;100.00;102477.09;7395938;19;20015;-58
2023/02/06 07:06:32;;;;;;;5.82;2.35;;;;;;;-4.45;100.00;102472.25;7395037;19;20018;-59
2023/02/06 07:08:58;;;;;;;6.32;3.30;;;;;;;-4.85;100.00;102464.00;7394335;19;20006;-58
2023/02/06 07:11:25;;;;;;;2.60;2.20;;;;;;;-4.93;100.00;102458.47;7393479;19;20007;-59
2023/02/06 07:13:52;;;;;;;6.93;4.13;;;;;;;-5.12;100.00;102461.38;7395336;19;20437;-58
2023/02/06 07:16:18;;;;;;;25.10;6.22;;;;;;;-5.11;100.00;102448.59;7395395;19;20011;-59
2023/02/06 07:18:44;;;;;;;2.72;1.83;;;;;;;-5.14;100.00;102441.06;7394382;19;20010;-58
2023/02/06 07:21:12;;;;;;;17.08;2.92;;;;;;;-5.17;100.00;102447.91;7397516;19;20013;-59
2023/02/06 07:23:39;;;;;;;5.28;2.83;;;;;;;-5.27;100.00;102448.16;7396858;19;20006;-58
2023/02/06 07:26:05;;;;;;;32.30;5.22;;;;;;;-5.20;100.00;102459.41;7398638;19;20014;-63
2023/02/06 07:28:32;;;;;;;28.58;7.32;;;;;;;-5.06;100.00;102460.16;7398986;19;20349;-63
2023/02/06 07:30:59;;;;;;;4.07;2.45;;;;;;;-5.20;100.00;102475.69;7397391;19;20017;-63
2023/02/06 07:33:26;;;;;;;2.80;2.08;;;;;;;-5.16;100.00;102471.25;7395017;19;20038;-63
2023/02/06 07:35:52;;;;;;;1.98;1.88;;;;;;;-5.18;100.00;102472.66;7395193;19;20010;-63
2023/02/06 07:38:18;;;;;;;3.63;1.80;;;;;;;-5.26;100.00;102463.31;7393449;19;20014;-62
2023/02/06 07:40:44;;;;;;;4.13;2.05;;;;;;;-4.76;100.00;102458.63;7397589;19;20014;-63
2023/02/06 07:43:11;;;;;;;11.70;3.90;;;;;;;-5.06;100.00;102462.88;7392903;19;20065;-63
2023/02/06 07:45:38;;;;;;;13.73;2.40;;;;;;;-5.02;100.00;102450.28;7395966;19;20011;-63
2023/02/06 07:48:04;;;;;;;2.00;1.90;;;;;;;-5.12;100.00;102439.66;7396981;19;20015;-63
2023/02/06 07:50:31;;;;;;;4.25;1.90;;;;;;;-4.92;100.00;102428.31;7396967;19;20357;-63
2023/02/06 07:52:58;;;;;;;1.85;1.20;;;;;;;-5.16;100.00;102427.78;7396035;19;20017;-63
2023/02/06 07:55:24;;;;;;;3.83;2.25;;;;;;;-4.62;100.00;102422.13;7394367;19;20011;-63
2023/02/06 07:57:50;;;;;;;3.95;1.90;;;;;;;-4.95;100.00;102426.19;7397813;19;20014;-63
2023/02/06 08:00:17;;;;;;;1.15;1.15;;;;;;;-4.61;100.00;102425.63;7397757;19;20014;-63
2023/02/06 08:02:43;;;;;;;9.43;1.88;;;;;;;-4.44;100.00;102424.94;7394013;19;20006;-63
2023/02/06 08:05:09;;;;;;;3.70;1.52;;;;;;;-4.57;100.00;102429.34;7397106;19;20062;-63
2023/02/06 08:07:35;;;;;;;5.40;3.33;;;;;;;-4.85;100.00;102428.66;7396101;19;20479;-63
2023/02/06 08:10:02;;;;;;;1.95;1.85;;;;;;;-4.72;100.00;102424.28;7395511;19;20095;-63
2023/02/06 08:12:29;;;;;;;2.17;2.00;;;;;;;-4.88;100.00;102417.63;7394822;19;20463;-63
2023/02/06 08:14:55;;;;;;;1.65;1.58;;;;;;;-4.72;100.00;102416.94;7392630;19;20028;-63
2023/02/06 08:17:21;;;;;;;3.33;1.92;;;;;;;-4.77;100.00;102419.78;7394089;19;20010;-63
2023/02/06 08:19:48;;;;;;;5.55;2.63;;;;;;;-4.56;100.00;102424.69;7393892;19;20006;-63
2023/02/06 08:22:14;;;;;;;2.35;1.38;;;;;;;-4.87;100.00;102424.63;7391803;19;20018;-63
2023/02/06 08:24:40;;;;;;;1.95;1.52;;;;;;;-4.80;100.00;102428.53;7392993;19;20747;-62
2023/02/06 08:27:06;;;;;;;4.00;1.75;;;;;;;-4.85;100.00;102423.22;7393328;19;20014;-62
2023/02/06 08:29:41;;;;;;;15.52;2.72;;;;;;;-4.55;100.00;102420.88;7393201;19;20463;-63
2023/02/06 08:32:11;;;;;;;1.77;1.67;;;;;;;-4.62;100.00;102411.25;7391102;19;20078;-63
2023/02/06 08:34:38;;;;;;;0.60;0.60;;;;;;;-4.96;100.00;102411.00;7392430;19;20006;-63
2023/02/06 08:37:04;;;;;;;7.13;2.45;;;;;;;-4.88;100.00;102407.56;7392395;19;20100;-63
2023/02/06 08:39:31;;;;;;;1.35;1.23;;;;;;;-4.67;100.00;102402.41;7392574;19;20019;-62
2023/02/06 08:41:57;;;;;;;1.98;1.83;;;;;;;-4.28;100.00;102413.34;7392369;19;20060;-62
2023/02/06 08:44:23;;;;;;;5.72;3.40;;;;;;;-4.05;100.00;102403.19;7391145;19;20015;-63
2023/02/06 08:46:50;;;;;;;2.00;1.63;;;;;;;-4.02;100.00;102397.13;7392640;19;20014;-63
2023/02/06 08:49:19;;;;;;;3.28;2.83;;;;;;;-4.17;100.00;102405.69;7393061;19;20006;-63
2023/02/06 08:51:48;;;;;;;6.75;2.05;;;;;;;-3.91;100.00;102401.16;7389021;19;20014;-63
2023/02/06 08:54:17;;;;;;;5.72;2.15;;;;;;;-3.77;100.00;102399.13;7394855;19;20010;-63
2023/02/06 08:56:43;;;;;;;1.50;1.40;;;;;;;-3.36;100.00;102410.41;7389953;19;20049;-63
2023/02/06 08:59:11;;;;;;;16.73;3.95;;;;;;;-3.44;100.00;102407.66;7392817;19;20873;-63
2023/02/06 09:01:38;;;;;;;3.03;1.35;;;;;;;-3.72;100.00;102407.13;7392098;19;20007;-63
2023/02/06 09:04:07;;;;;;;4.20;3.15;;;;;;;-3.80;100.00;102407.91;7392066;19;20011;-63
2023/02/06 09:06:36;;;;;;;20.02;2.80;;;;;;;-3.71;100.00;102397.84;7392090;19;20010;-62
2023/02/06 09:09:03;;;;;;;2.00;1.88;;;;;;;-3.52;100.00;102400.28;7390761;19;20010;-63
2023/02/06 09:11:30;;;;;;;2.28;1.60;;;;;;;-4.02;100.00;102394.41;7390666;19;20019;-63
2023/02/06 09:13:58;;;;;;;1.55;1.48;;;;;;;-4.29;100.00;102400.06;7390701;19;20014;-63
2023/02/06 09:16:27;;;;;;;3.10;2.17;;;;;;;-3.52;100.00;102401.09;7391788;19;20002;-63
2023/02/06 09:18:54;;;;;;;0.82;0.80;;;;;;;-3.68;100.00;102404.59;7389793;19;20463;-63
2023/02/06 09:21:23;;;;;;;1.35;1.25;;;;;;;-3.78;100.00;102402.16;7390771;19;20018;-63
2023/02/06 09:23:53;;;;;;;4.18;1.48;;;;;;;-3.48;100.00;102391.16;7394039;19;20022;-63
2023/02/06 09:26:22;;;;;;;1.85;1.75;;;;;;;-3.29;100.00;102391.66;7389507;19;20052;-63
2023/02/06 09:28:57;;;;;;;13.20;1.95;;;;;;;-3.50;100.00;102398.84;7389461;19;20561;-63
2023/02/06 09:31:25;;;;;;;4.32;3.15;;;;;;;-3.43;100.00;102399.19;7393080;19;20021;-63
2023/02/06 09:33:52;;;;;;;3.20;1.52;;;;;;;-3.34;100.00;102399.19;7389797;19;20010;-63
2023/02/06 09:36:19;;;;;;;4.90;2.63;;;;;;;-3.08;100.00;102395.34;7390430;19;20026;-63
2023/02/06 09:38:52;;;;;;;1.35;1.17;;;;;;;-3.44;100.00;102397.56;7391596;19;20010;-63
2023/02/06 09:41:42;;;;;;;1.40;1.30;;;;;;;-3.12;100.00;102394.38;7392094;19;20007;-63
2023/02/06 09:44:09;;;;;;;3.10;1.85;;;;;;;-2.70;100.00;102381.00;7390876;19;20070;-63
2023/02/06 09:46:41;;;;;;;0.52;0.52;;;;;;;-2.61;100.00;102387.25;7390998;19;20014;-63
2023/02/06 09:49:23;;;;;;;2.53;1.77;;;;;;;-2.82;100.00;102389.06;7390337;19;20013;-63
2023/02/06 09:52:20;;;;;;;1.55;0.77;;;;;;;-2.65;100.00;102391.75;7388395;19;20250;-63
2023/02/06 09:55:10;;;;;;;11.65;1.65;;;;;;;-2.57;100.00;102382.75;7390543;19;20019;-63
2023/02/06 09:58:07;;;;;;;1.95;1.27;;;;;;;-2.84;100.00;102373.03;7388622;19;20464;-63
2023/02/06 10:00:40;;;;;;;3.10;1.48;;;;;;;-2.65;100.00;102380.84;7394441;19;20596;-63
2023/02/06 10:03:18;;;;;;;3.65;1.52;;;;;;;-2.53;100.00;102372.78;7390801;19;20088;-63
2023/02/06 10:06:13;;;;;;;5.82;1.02;;;;;;;-2.33;100.00;102374.81;7391177;19;20073;-63
2023/02/06 10:08:49;;;;;;;1.95;1.85;;;;;;;-2.28;100.00;102371.09;7388308;19;20086;-63
2023/02/06 10:11:27;;;;;;;10.73;2.47;;;;;;;-2.39;100.00;102381.56;7391186;19;20014;-63
2023/02/06 10:14:01;;;;;;;0.68;0.52;;;;;;;-2.19;100.00;102383.59;7389938;19;20471;-63
2023/02/06 10:16:47;;;;;;;0.85;0.85;;;;;;;-1.79;100.00;102376.63;7389944;19;20021;-63
2023/02/06 10:19:20;;;;;;;1.20;1.08;;;;;;;-1.74;100.00;102367.44;7391503;19;20394;-63
2023/02/06 10:22:00;;;;;;;2.00;1.10;;;;;;;-1.92;100.00;102366.75;7393411;19;20046;-63
2023/02/06 10:24:38;;;;;;;2.05;1.50;;;;;;;-2.05;100.00;102356.84;7400421;19;20011;-63
2023/02/06 10:27:10;;;;;;;29.70;3.70;;;;;;;-1.92;100.00;102358.56;7397514;19;20014;-63
2023/02/06 10:29:39;;;;;;;9.27;1.48;;;;;;;-1.85;100.00;102361.56;7398753;19;20011;-63
2023/02/06 10:32:19;;;;;;;4.60;2.10;;;;;;;-1.47;100.00;102366.16;7394927;19;20028;-63
2023/02/06 10:35:04;;;;;;;1.42;1.33;;;;;;;-0.99;100.00;102355.41;7398081;19;20486;-63
2023/02/06 10:37:50;;;;;;;2.17;1.65;;;;;;;-1.52;100.00;102354.25;7397959;19;20429;-63
2023/02/06 10:40:19;;;;;;;8.65;3.15;;;;;;;-1.17;100.00;102364.94;7400101;19;20011;-63
2023/02/06 10:42:52;;;;;;;0.77;0.77;;;;;;;-1.22;100.00;102367.88;7399128;19;20019;-63
2023/02/06 10:45:38;;;;;;;1.33;1.27;;;;;;;-1.06;100.00;102360.66;7397234;19;20041;-63
2023/02/06 10:48:36;;;;;;;0.93;0.90;;;;;;;1.65;100.00;102349.03;7397655;19;20011;-63
2023/02/06 10:51:16;;;;;;;1.00;1.00;;;;;;;21.05;60.03;102309.00;7398565;19;20041;-64
2023/02/06 10:53:56;;;;;;;9.18;1.23;;;;;;;19.11;51.97;102325.84;7398395;19;20019;-64
2023/02/06 10:56:34;;;;;;;3.77;1.10;;;;;;;18.68;62.90;102315.75;7393877;19;20010;-63
2023/02/06 10:59:29;;;;;;;0.73;0.73;;;;;;;24.08;44.94;102312.91;7396635;19;20014;-63
2023/02/06 11:02:21;;;;;;;0.50;0.50;;;;;;;25.07;41.78;102305.13;7369564;19;20034;-86
2023/02/06 11:05:03;;;;;;;2.40;0.70;;;;;;;25.10;40.38;102304.13;7388709;19;20019;-86
2023/02/06 11:07:33;;;;;;;5.32;1.83;;;;;;;8.64;89.98;102349.06;7390155;19;20031;-86
2023/02/06 11:09:59;;;;;;;4.13;1.50;;;;;;;4.44;100.00;102358.94;7392026;19;20018;-86
2023/02/06 11:12:46;;;;;;;6.53;1.20;;;;;;;22.49;51.45;102328.13;7390713;19;20019;-86
2023/02/06 11:15:22;;;;;;;1.00;0.93;;;;;;;25.18;42.75;102325.13;7389195;19;20385;-86
2023/02/06 11:17:51;;;;;;;1.00;0.90;;;;;;;26.09;39.94;102314.63;7392266;19;20022;-87
2023/02/06 11:20:31;;;;;;;13.68;3.10;;;;;;;26.16;38.83;102305.50;7393142;19;20031;-86
2023/02/06 11:23:18;;;;;;;1.38;1.13;;;;;;;26.76;37.58;102295.81;7390313;19;20056;-86
2023/02/06 11:25:54;;;;;;;2.92;1.40;;;;;;;26.95;36.45;102302.44;7388139;19;20022;-86
2023/02/06 11:28:22;;;;;;;1.27;0.95;;;;;;;27.24;35.71;102308.69;7390022;19;20039;-87
2023/02/06 11:30:59;;;;;;;3.60;1.70;;;;;;;27.34;35.17;102315.63;7393002;19;20022;-87